Time;durP1;ratioP1;P1;durP2;ratioP2;P2;SDS_P1;SDS_P2;PMS_P1;PMS_P2;Temp;Humidity;BMP_temperature;BMP_pressure;BME280_temperature;BME280_humidity;BME280_pressure;Samples;Min_cycle;Max_cycle;Signal;HPM_P1;HPM_P2
2023/05/02 00:00:30;;;;;;;3.53;2.30;;;13.30;99.90;;;;;;5054255;28;20059;-44
2023/05/02 00:02:56;;;;;;;3.55;2.20;;;13.30;99.90;;;;;;5053950;28;20437;-46
2023/05/02 00:05:22;;;;;;;3.33;1.90;;;13.30;99.90;;;;;;5054168;28;20118;-45
2023/05/02 00:07:48;;;;;;;2.47;2.10;;;13.30;99.90;;;;;;5053016;28;20395;-45
2023/05/02 00:10:14;;;;;;;2.47;1.90;;;13.30;99.90;;;;;;5053576;28;20024;-46
2023/05/02 00:12:40;;;;;;;2.30;2.10;;;13.30;99.90;;;;;;5054365;28;20049;-47
2023/05/02 00:15:06;;;;;;;1.92;1.70;;;13.30;99.90;;;;;;5054572;28;20017;-45
2023/05/02 00:17:32;;;;;;;1.98;1.73;;;13.30;99.90;;;;;;5053269;28;20617;-45
2023/05/02 00:19:58;;;;;;;2.35;2.15;;;13.30;99.90;;;;;;5054050;28;20056;-45
2023/05/02 00:22:24;;;;;;;2.03;1.83;;;13.30;99.90;;;;;;5053949;28;20559;-46
2023/05/02 00:24:54;;;;;;;2.10;1.83;;;13.30;99.90;;;;;;5055321;28;20125;-45
2023/05/02 00:27:20;;;;;;;3.20;2.30;;;13.20;99.90;;;;;;5053118;28;20021;-44
2023/05/02 00:29:46;;;;;;;2.47;1.73;;;13.30;99.90;;;;;;5053684;28;20433;-45
2023/05/02 00:32:12;;;;;;;2.75;2.10;;;13.30;99.90;;;;;;5053707;28;20483;-44
2023/05/02 00:34:38;;;;;;;2.75;1.98;;;13.20;99.90;;;;;;5054944;28;20032;-44
2023/05/02 00:37:04;;;;;;;2.08;1.88;;;13.20;99.90;;;;;;5054507;28;20387;-45
2023/05/02 00:39:29;;;;;;;2.38;1.90;;;13.20;99.90;;;;;;5053978;28;20029;-46
2023/05/02 00:41:56;;;;;;;3.03;2.17;;;13.20;99.90;;;;;;5053270;28;20433;-45
2023/05/02 00:44:22;;;;;;;2.58;1.73;;;13.20;99.90;;;;;;5054168;28;20025;-45
2023/05/02 00:46:48;;;;;;;1.98;1.70;;;13.20;99.90;;;;;;5052149;28;20035;-45
2023/05/02 00:49:14;;;;;;;2.80;2.00;;;13.20;99.90;;;;;;5053857;28;20194;-45
2023/05/02 00:51:39;;;;;;;3.38;2.00;;;13.20;99.90;;;;;;5053953;28;20036;-44
2023/05/02 00:54:05;;;;;;;4.20;1.73;;;13.20;99.90;;;;;;5052629;28;20025;-46
2023/05/02 00:56:31;;;;;;;2.08;1.58;;;13.20;99.90;;;;;;5052365;28;20029;-44
2023/05/02 00:58:57;;;;;;;2.78;2.08;;;13.20;99.90;;;;;;5052736;28;20028;-45
2023/05/02 01:01:38;;;;;;;2.38;2.05;;;13.20;99.90;;;;;;5053028;28;20040;-45
2023/05/02 01:04:10;;;;;;;2.33;1.85;;;13.20;99.90;;;;;;5053923;28;20043;-44
2023/05/02 01:06:41;;;;;;;5.30;2.10;;;13.20;99.90;;;;;;5052692;28;20029;-45
2023/05/02 01:09:28;;;;;;;3.17;1.60;;;13.10;99.90;;;;;;5053071;28;20025;-46
2023/05/02 01:12:03;;;;;;;4.03;2.00;;;13.10;99.90;;;;;;5053172;28;20044;-45
2023/05/02 01:14:32;;;;;;;3.28;1.85;;;13.10;99.90;;;;;;5054410;28;20032;-45
2023/05/02 01:17:05;;;;;;;6.90;2.10;;;13.20;99.90;;;;;;5052488;28;20044;-45
2023/05/02 01:19:35;;;;;;;2.35;1.92;;;13.10;99.90;;;;;;5053401;28;20025;-45
2023/05/02 01:22:08;;;;;;;2.13;1.70;;;13.10;99.90;;;;;;5052224;28;20028;-45
2023/05/02 01:25:11;;;;;;;2.40;2.20;;;13.10;99.90;;;;;;5052191;28;20025;-45
2023/05/02 01:27:47;;;;;;;3.40;2.00;;;13.10;99.90;;;;;;5051683;28;20048;-46
2023/05/02 01:30:16;;;;;;;2.40;1.92;;;13.10;99.90;;;;;;5054489;28;20017;-45
2023/05/02 01:32:45;;;;;;;4.40;2.20;;;13.10;99.90;;;;;;5053584;28;20514;-47
2023/05/02 01:35:14;;;;;;;2.42;1.77;;;13.10;99.90;;;;;;5052595;28;20078;-45
2023/05/02 01:37:43;;;;;;;4.55;1.95;;;13.10;99.90;;;;;;5052774;28;20025;-47
2023/05/02 01:40:10;;;;;;;2.63;1.98;;;13.10;99.90;;;;;;5051775;28;20398;-46
2023/05/02 01:42:38;;;;;;;2.95;2.15;;;13.10;99.90;;;;;;5050645;28;20028;-47
2023/05/02 01:45:06;;;;;;;2.42;1.83;;;13.10;99.90;;;;;;5052672;28;20017;-45
2023/05/02 01:47:34;;;;;;;3.53;1.92;;;13.10;99.90;;;;;;5051757;28;20017;-45
2023/05/02 01:50:06;;;;;;;5.25;2.00;;;13.10;99.90;;;;;;5052732;28;20021;-44
2023/05/02 01:52:33;;;;;;;2.10;1.90;;;13.10;99.90;;;;;;5053293;28;20017;-44
2023/05/02 01:55:00;;;;;;;2.08;1.80;;;13.10;99.90;;;;;;5053806;28;20074;-45
2023/05/02 01:57:26;;;;;;;3.83;1.75;;;13.10;99.90;;;;;;5052695;28;20020;-45
2023/05/02 01:59:55;;;;;;;2.50;1.70;;;13.10;99.90;;;;;;5053362;28;20290;-46
2023/05/02 02:02:26;;;;;;;1.90;1.70;;;13.10;99.90;;;;;;5052743;28;20029;-45
2023/05/02 02:04:56;;;;;;;2.10;1.90;;;13.10;99.90;;;;;;5052391;28;20514;-43
2023/05/02 02:07:22;;;;;;;2.70;2.00;;;13.00;99.90;;;;;;5052312;28;20025;-46
2023/05/02 02:09:48;;;;;;;2.38;1.80;;;13.10;99.90;;;;;;5051932;28;20028;-47
2023/05/02 02:12:23;;;;;;;4.32;2.15;;;13.00;99.90;;;;;;5053148;28;20032;-46
2023/05/02 02:15:09;;;;;;;3.75;2.00;;;13.00;99.90;;;;;;5051908;28;20021;-45
2023/05/02 02:17:43;;;;;;;2.20;2.00;;;13.00;99.90;;;;;;5052107;28;20033;-45
2023/05/02 02:20:12;;;;;;;2.78;1.63;;;13.00;99.90;;;;;;5053493;28;20048;-44
2023/05/02 02:22:39;;;;;;;2.15;1.92;;;13.10;99.90;;;;;;5053319;28;20028;-45
2023/05/02 02:25:08;;;;;;;3.53;1.80;;;13.10;99.90;;;;;;5052240;28;20108;-46
2023/05/02 02:27:35;;;;;;;3.70;2.03;;;13.00;99.90;;;;;;5052776;28;20383;-45
2023/05/02 02:30:00;;;;;;;2.70;2.20;;;13.00;99.90;;;;;;5051687;28;20033;-47
2023/05/02 02:32:26;;;;;;;3.58;2.08;;;13.00;99.90;;;;;;5051359;28;20025;-44
2023/05/02 02:34:51;;;;;;;4.82;2.00;;;13.00;99.90;;;;;;5052967;28;20017;-46
2023/05/02 02:37:22;;;;;;;2.33;1.70;;;13.00;99.90;;;;;;5050800;28;20475;-44
2023/05/02 02:40:19;;;;;;;2.63;1.95;;;13.00;99.90;;;;;;5052860;28;20147;-45
2023/05/02 02:43:05;;;;;;;3.70;1.95;;;13.00;99.90;;;;;;5050971;28;20390;-44
2023/05/02 02:45:56;;;;;;;3.17;1.98;;;13.00;99.90;;;;;;5050924;28;20617;-47
2023/05/02 02:48:21;;;;;;;4.47;1.85;;;13.00;99.90;;;;;;5051693;28;20043;-45
2023/05/02 02:50:50;;;;;;;2.10;1.90;;;13.00;99.90;;;;;;5052121;28;20025;-45
2023/05/02 02:53:25;;;;;;;1.90;1.80;;;13.00;99.90;;;;;;5050836;28;20029;-43
2023/05/02 02:56:01;;;;;;;3.03;1.88;;;13.00;99.90;;;;;;5051779;28;20021;-47
2023/05/02 02:58:53;;;;;;;2.92;1.55;;;13.00;99.90;;;;;;5051332;28;20487;-45
2023/05/02 03:01:20;;;;;;;1.70;1.60;;;12.90;99.90;;;;;;5051562;28;20055;-45
2023/05/02 03:03:48;;;;;;;2.28;1.98;;;13.00;99.90;;;;;;5051650;28;20037;-45
2023/05/02 03:06:16;;;;;;;2.65;1.80;;;13.00;99.90;;;;;;5051945;28;20025;-45
2023/05/02 03:08:43;;;;;;;3.53;1.73;;;13.00;99.90;;;;;;5053069;28;20117;-46
2023/05/02 03:11:09;;;;;;;2.00;1.80;;;12.90;99.90;;;;;;5056626;28;20021;-45
2023/05/02 03:13:35;;;;;;;2.10;1.90;;;13.00;99.90;;;;;;5056333;28;20025;-45
2023/05/02 03:16:19;;;;;;;2.15;1.65;;;13.00;99.90;;;;;;5056202;28;20166;-45
2023/05/02 03:18:45;;;;;;;2.55;1.73;;;12.90;99.90;;;;;;5055285;28;20096;-46
2023/05/02 03:21:11;;;;;;;2.60;1.80;;;13.00;99.90;;;;;;5056192;28;20518;-46
2023/05/02 03:23:36;;;;;;;1.90;1.50;;;12.90;99.90;;;;;;5056136;28;20334;-46
2023/05/02 03:26:02;;;;;;;1.92;1.70;;;12.90;99.90;;;;;;5055835;28;20021;-46
2023/05/02 03:28:28;;;;;;;2.42;2.05;;;12.90;99.90;;;;;;5056540;28;20045;-46
2023/05/02 03:30:53;;;;;;;2.00;1.83;;;12.90;99.90;;;;;;5055111;28;20036;-47
2023/05/02 03:33:19;;;;;;;2.08;1.70;;;12.90;99.90;;;;;;5054390;28;20078;-44
2023/05/02 03:35:44;;;;;;;4.63;1.90;;;12.90;99.90;;;;;;5054400;28;20033;-45
2023/05/02 03:38:10;;;;;;;2.63;1.80;;;12.90;99.90;;;;;;5053934;28;20040;-47
2023/05/02 03:40:36;;;;;;;4.22;1.80;;;12.90;99.90;;;;;;5054204;28;20394;-45
2023/05/02 03:43:01;;;;;;;2.33;1.85;;;12.90;99.90;;;;;;5054635;28;20031;-45
2023/05/02 03:45:27;;;;;;;2.90;1.92;;;12.90;99.90;;;;;;5054593;28;20111;-47
2023/05/02 03:47:52;;;;;;;2.00;1.80;;;12.90;99.90;;;;;;5054468;28;20032;-45
2023/05/02 03:50:18;;;;;;;2.22;1.85;;;12.90;99.90;;;;;;5055314;28;20071;-46
2023/05/02 03:52:44;;;;;;;2.08;1.88;;;12.90;99.90;;;;;;5053983;28;20029;-47
2023/05/02 03:55:10;;;;;;;2.60;1.60;;;12.90;99.90;;;;;;5054576;28;20047;-45
2023/05/02 03:57:35;;;;;;;2.10;1.83;;;12.90;99.90;;;;;;5053776;28;20098;-45
2023/05/02 04:00:01;;;;;;;2.60;1.90;;;12.90;99.90;;;;;;5054387;28;20029;-45
2023/05/02 04:02:28;;;;;;;2.22;1.90;;;12.90;99.90;;;;;;5055758;28;20021;-45
2023/05/02 04:04:54;;;;;;;1.85;1.70;;;12.90;99.90;;;;;;5056185;28;20017;-45
2023/05/02 04:07:20;;;;;;;4.13;1.70;;;12.90;99.90;;;;;;5054677;28;20028;-44
2023/05/02 04:09:45;;;;;;;3.88;2.00;;;12.90;99.90;;;;;;5054871;28;20024;-47
2023/05/02 04:12:11;;;;;;;3.70;1.77;;;12.90;99.90;;;;;;5054973;28;20031;-46
2023/05/02 04:14:37;;;;;;;3.35;2.00;;;12.90;99.90;;;;;;5055899;28;20048;-45
2023/05/02 04:17:02;;;;;;;2.63;2.20;;;12.90;99.90;;;;;;5055196;28;20017;-43
2023/05/02 04:19:29;;;;;;;2.50;2.08;;;12.90;99.90;;;;;;5054573;28;20036;-44
2023/05/02 04:21:55;;;;;;;2.10;1.80;;;12.90;99.90;;;;;;5053310;28;20025;-45
2023/05/02 04:24:21;;;;;;;2.13;1.80;;;12.90;99.90;;;;;;5054301;28;20086;-47
2023/05/02 04:26:47;;;;;;;2.58;2.30;;;12.90;99.90;;;;;;5052638;28;20088;-46
2023/05/02 04:29:13;;;;;;;3.28;2.25;;;12.90;99.90;;;;;;5055180;28;20475;-45
2023/05/02 04:31:39;;;;;;;2.45;2.22;;;12.90;99.90;;;;;;5054195;28;20029;-45
2023/05/02 04:34:05;;;;;;;3.33;2.58;;;12.90;99.90;;;;;;5054024;28;20025;-45
2023/05/02 04:36:31;;;;;;;2.30;2.05;;;12.90;99.90;;;;;;5053403;28;20479;-45
2023/05/02 04:38:57;;;;;;;3.45;2.63;;;12.90;99.90;;;;;;5054271;28;20037;-45
2023/05/02 04:41:22;;;;;;;2.53;2.20;;;12.90;99.90;;;;;;5054917;28;20518;-43
2023/05/02 04:43:48;;;;;;;3.65;2.47;;;12.90;99.90;;;;;;5053069;28;20127;-47
2023/05/02 04:46:16;;;;;;;2.67;2.28;;;12.90;99.90;;;;;;5054337;28;20025;-44
2023/05/02 04:48:42;;;;;;;6.78;4.07;;;12.90;99.90;;;;;;5054928;28;20025;-45
2023/05/02 04:51:09;;;;;;;14.73;8.88;;;12.90;99.90;;;;;;5055615;28;20013;-47
2023/05/02 04:53:35;;;;;;;14.02;7.95;;;12.90;99.90;;;;;;5054716;28;20493;-45
2023/05/02 04:56:00;;;;;;;18.35;8.40;;;12.90;99.90;;;;;;5052944;28;20053;-45
2023/05/02 04:58:26;;;;;;;11.70;6.07;;;12.90;99.90;;;;;;5054576;28;20051;-46
2023/05/02 05:00:53;;;;;;;7.63;4.80;;;12.90;99.90;;;;;;5055521;28;20025;-45
2023/05/02 05:03:19;;;;;;;5.93;4.07;;;12.90;99.90;;;;;;5051176;28;20033;-45
2023/05/02 05:05:44;;;;;;;6.07;4.40;;;13.00;99.90;;;;;;5054093;28;20032;-45
2023/05/02 05:08:10;;;;;;;6.10;4.35;;;12.90;99.90;;;;;;5053260;28;20017;-45
2023/05/02 05:10:36;;;;;;;8.13;4.72;;;12.90;99.90;;;;;;5054291;28;20044;-44
2023/05/02 05:13:03;;;;;;;7.43;4.47;;;12.90;99.90;;;;;;5054537;28;20070;-44
2023/05/02 05:15:28;;;;;;;6.90;4.15;;;13.00;99.90;;;;;;5054159;28;20025;-47
2023/05/02 05:17:54;;;;;;;5.68;4.00;;;12.90;99.90;;;;;;5052392;28;20491;-44
2023/05/02 05:20:20;;;;;;;8.57;4.00;;;12.90;99.90;;;;;;5053634;28;20025;-47
2023/05/02 05:22:45;;;;;;;4.93;3.50;;;13.00;99.90;;;;;;5052744;28;20479;-45
2023/05/02 05:25:11;;;;;;;5.53;3.90;;;13.00;99.90;;;;;;5052452;28;20080;-47
2023/05/02 05:27:37;;;;;;;4.03;3.50;;;13.00;99.90;;;;;;5053282;28;20559;-45
2023/05/02 05:30:07;;;;;;;5.70;3.95;;;13.00;99.90;;;;;;5053921;28;20096;-47
2023/05/02 05:32:33;;;;;;;6.25;3.95;;;13.00;99.90;;;;;;5051567;28;20017;-46
2023/05/02 05:35:00;;;;;;;5.55;3.88;;;13.00;99.90;;;;;;5052048;28;20036;-46
2023/05/02 05:37:25;;;;;;;6.88;4.10;;;13.00;99.90;;;;;;5051960;28;20025;-47
2023/05/02 05:39:51;;;;;;;6.78;4.00;;;13.00;99.90;;;;;;5051951;28;20498;-45
2023/05/02 05:42:16;;;;;;;7.72;3.85;;;13.00;99.90;;;;;;5052091;28;20044;-45
2023/05/02 05:44:42;;;;;;;5.85;3.40;;;13.00;99.90;;;;;;5051916;28;20117;-45
2023/05/02 05:47:08;;;;;;;5.88;3.83;;;13.00;99.90;;;;;;5051442;28;20032;-47
2023/05/02 05:49:35;;;;;;;4.55;3.40;;;13.00;99.90;;;;;;5051728;28;20052;-48
2023/05/02 05:52:01;;;;;;;6.53;3.80;;;13.00;99.90;;;;;;5051738;28;20075;-48
2023/05/02 05:54:27;;;;;;;4.97;3.22;;;13.10;99.90;;;;;;5051767;28;20053;-47
2023/05/02 05:56:53;;;;;;;4.82;3.53;;;13.10;99.90;;;;;;5051540;28;20570;-47
2023/05/02 05:59:19;;;;;;;6.57;3.80;;;13.10;99.90;;;;;;5052154;28;20029;-48
2023/05/02 06:01:44;;;;;;;4.78;3.50;;;13.00;99.90;;;;;;5052001;28;20029;-45
2023/05/02 06:04:10;;;;;;;3.80;3.03;;;13.10;99.90;;;;;;5051398;28;20510;-44
2023/05/02 06:06:36;;;;;;;4.13;3.50;;;13.10;99.90;;;;;;5050853;28;20045;-46
2023/05/02 06:09:02;;;;;;;4.85;3.50;;;13.10;99.90;;;;;;5051495;28;20044;-45
2023/05/02 06:11:27;;;;;;;6.32;3.65;;;13.00;99.90;;;;;;5051693;28;20027;-45
2023/05/02 06:13:53;;;;;;;3.90;3.50;;;13.10;99.90;;;;;;5051713;28;20540;-45
2023/05/02 06:16:19;;;;;;;6.10;3.38;;;13.10;99.90;;;;;;5049542;28;20071;-47
2023/05/02 06:18:45;;;;;;;4.43;3.63;;;13.10;99.90;;;;;;5051334;28;20029;-46
2023/05/02 06:21:11;;;;;;;6.88;4.05;;;13.10;99.90;;;;;;5051432;28;20518;-45
2023/05/02 06:23:37;;;;;;;5.78;3.53;;;13.10;99.90;;;;;;5051229;28;20048;-45
2023/05/02 06:26:03;;;;;;;4.78;3.70;;;13.10;99.90;;;;;;5050697;28;20102;-47
2023/05/02 06:28:30;;;;;;;4.60;3.22;;;13.10;99.90;;;;;;5051397;28;20025;-47
2023/05/02 06:31:04;;;;;;;4.88;3.60;;;13.10;99.90;;;;;;5051262;28;20074;-46
2023/05/02 06:33:31;;;;;;;6.15;4.07;;;13.10;99.90;;;;;;5051456;28;20388;-45
2023/05/02 06:35:57;;;;;;;7.53;4.20;;;13.10;99.90;;;;;;5050691;28;20017;-44
2023/05/02 06:38:23;;;;;;;6.65;3.70;;;13.10;99.90;;;;;;5051073;28;20091;-45
2023/05/02 06:40:49;;;;;;;4.40;4.00;;;13.10;99.90;;;;;;5051182;28;20039;-45
2023/05/02 06:43:15;;;;;;;4.75;4.20;;;13.10;99.90;;;;;;5051122;28;20041;-47
2023/05/02 06:45:41;;;;;;;5.15;4.00;;;13.10;99.90;;;;;;5051223;28;20033;-47
2023/05/02 06:48:07;;;;;;;5.70;3.83;;;13.10;99.90;;;;;;5050629;28;20025;-45
2023/05/02 06:50:34;;;;;;;5.07;4.32;;;13.10;99.90;;;;;;5050879;28;20019;-46
2023/05/02 06:53:00;;;;;;;6.45;4.88;;;13.10;99.90;;;;;;5051183;28;20021;-45
2023/05/02 06:55:26;;;;;;;5.72;4.80;;;13.20;99.90;;;;;;5051017;28;20364;-47
2023/05/02 06:57:52;;;;;;;6.15;4.50;;;13.10;99.90;;;;;;5050368;28;20438;-44
2023/05/02 07:00:19;;;;;;;7.93;5.78;;;13.10;99.90;;;;;;5050980;28;20029;-44
2023/05/02 07:02:46;;;;;;;7.65;5.60;;;13.10;99.90;;;;;;5049348;28;20119;-46
2023/05/02 07:05:14;;;;;;;7.25;5.55;;;13.10;99.90;;;;;;5050658;28;20024;-45
2023/05/02 07:07:41;;;;;;;8.45;6.47;;;13.20;99.90;;;;;;5050222;28;20056;-45
2023/05/02 07:10:07;;;;;;;15.70;11.40;;;13.20;99.90;;;;;;5050692;28;20025;-44
2023/05/02 07:12:33;;;;;;;13.77;11.13;;;13.10;99.90;;;;;;5050693;28;20029;-45
2023/05/02 07:14:59;;;;;;;15.27;11.02;;;13.10;99.90;;;;;;5050657;28;20021;-44
2023/05/02 07:17:25;;;;;;;15.60;11.05;;;13.10;99.90;;;;;;5048554;28;20021;-44
2023/05/02 07:19:51;;;;;;;16.92;11.50;;;13.10;99.90;;;;;;5050576;28;20040;-43
2023/05/02 07:22:17;;;;;;;12.68;11.20;;;13.00;99.90;;;;;;5050885;28;20379;-45
2023/05/02 07:24:42;;;;;;;13.60;10.85;;;13.10;99.90;;;;;;5050690;28;20044;-43
2023/05/02 07:27:09;;;;;;;14.55;11.23;;;13.00;99.90;;;;;;5050029;28;20051;-42
2023/05/02 07:29:35;;;;;;;12.15;10.18;;;13.10;99.90;;;;;;5050536;28;20029;-43
2023/05/02 07:32:01;;;;;;;12.65;10.05;;;13.10;99.90;;;;;;5050366;28;20033;-40
2023/05/02 07:34:26;;;;;;;15.60;10.85;;;13.10;99.90;;;;;;5050414;28;20025;-41
2023/05/02 07:36:52;;;;;;;11.93;10.05;;;13.10;99.90;;;;;;5049918;28;20041;-43
2023/05/02 07:39:18;;;;;;;11.82;10.43;;;13.10;99.90;;;;;;5050469;28;20025;-45
2023/05/02 07:41:44;;;;;;;12.85;10.65;;;13.10;99.90;;;;;;5050481;28;20442;-44
2023/05/02 07:44:10;;;;;;;12.95;10.27;;;13.10;99.90;;;;;;5050482;28;20104;-45
2023/05/02 07:46:36;;;;;;;13.48;10.80;;;13.10;99.90;;;;;;5050155;28;20025;-42
2023/05/02 07:49:02;;;;;;;13.85;10.57;;;13.10;99.90;;;;;;5050311;28;20328;-44
2023/05/02 07:51:28;;;;;;;14.38;11.68;;;13.10;99.90;;;;;;5050492;28;20032;-42
2023/05/02 07:53:57;;;;;;;17.67;13.20;;;13.10;99.90;;;;;;5050287;28;20435;-41
2023/05/02 07:56:23;;;;;;;15.43;12.35;;;13.10;99.90;;;;;;5053173;28;20029;-43
2023/05/02 07:58:50;;;;;;;15.05;12.50;;;13.10;99.90;;;;;;5053925;28;20039;-44
2023/05/02 08:01:16;;;;;;;14.77;12.65;;;13.10;99.90;;;;;;5053594;28;20508;-44
2023/05/02 08:03:42;;;;;;;13.85;10.93;;;13.20;99.90;;;;;;5053871;28;20494;-43
2023/05/02 08:06:08;;;;;;;18.20;12.80;;;13.20;99.90;;;;;;5053223;28;20049;-40
2023/05/02 08:08:34;;;;;;;14.60;12.65;;;13.20;99.90;;;;;;5053685;28;20030;-42
2023/05/02 08:11:00;;;;;;;13.43;11.02;;;13.20;99.90;;;;;;5053638;28;20029;-40
2023/05/02 08:13:26;;;;;;;13.30;11.27;;;13.20;99.90;;;;;;5053575;28;20036;-45
2023/05/02 08:15:56;;;;;;;13.73;10.15;;;13.20;99.90;;;;;;5052993;28;20048;-44
2023/05/02 08:18:23;;;;;;;12.82;10.68;;;13.20;99.90;;;;;;5053448;28;20017;-40
2023/05/02 08:20:49;;;;;;;11.65;9.98;;;13.20;99.90;;;;;;5053432;28;20056;-45
2023/05/02 08:23:15;;;;;;;14.88;10.63;;;13.20;99.90;;;;;;5053566;28;20494;-43
2023/05/02 08:25:41;;;;;;;14.55;10.43;;;13.20;99.90;;;;;;5053206;28;20064;-44
2023/05/02 08:28:06;;;;;;;14.52;11.18;;;13.20;99.90;;;;;;5052853;28;20021;-41
2023/05/02 08:30:32;;;;;;;12.63;10.23;;;13.20;99.90;;;;;;5053135;28;20025;-45
2023/05/02 08:32:58;;;;;;;25.67;21.15;;;13.20;99.90;;;;;;5053216;28;20032;-44
2023/05/02 08:35:23;;;;;;;35.30;27.73;;;13.20;99.90;;;;;;5053177;28;20025;-43
2023/05/02 08:37:49;;;;;;;33.25;26.55;;;13.20;99.90;;;;;;5052796;28;20025;-41
2023/05/02 08:40:16;;;;;;;32.20;26.10;;;13.20;99.90;;;;;;5053580;28;20106;-42
2023/05/02 08:42:43;;;;;;;31.10;24.30;;;13.10;99.90;;;;;;5053241;28;20025;-43
2023/05/02 08:45:13;;;;;;;31.38;25.23;;;13.10;99.90;;;;;;5052896;28;20044;-43
2023/05/02 08:47:42;;;;;;;30.25;24.90;;;13.10;99.90;;;;;;5052439;28;20622;-38
2023/05/02 08:50:11;;;;;;;30.38;23.63;;;13.10;99.90;;;;;;5052982;28;20036;-43
2023/05/02 08:52:37;;;;;;;30.05;23.33;;;13.20;99.90;;;;;;5053248;28;20422;-43
2023/05/02 08:55:06;;;;;;;28.25;22.50;;;13.20;99.90;;;;;;5052973;28;20018;-43
2023/05/02 08:57:31;;;;;;;26.83;21.48;;;13.20;99.90;;;;;;5052117;28;20434;-39
2023/05/02 08:59:57;;;;;;;24.98;20.88;;;13.20;99.90;;;;;;5052696;28;20491;-43
2023/05/02 09:02:38;;;;;;;29.10;21.08;;;13.20;99.90;;;;;;5052754;28;20033;-43
2023/05/02 09:05:08;;;;;;;25.83;20.23;;;13.30;99.90;;;;;;5052707;28;20029;-43
2023/05/02 09:07:47;;;;;;;22.98;20.38;;;13.30;99.90;;;;;;5051008;28;20454;-42
2023/05/02 09:10:14;;;;;;;22.85;19.02;;;13.30;99.90;;;;;;5052818;28;20108;-42
2023/05/02 09:12:40;;;;;;;24.00;19.17;;;13.30;99.90;;;;;;5052676;28;20032;-43
2023/05/02 09:15:23;;;;;;;21.35;17.65;;;13.30;99.90;;;;;;5052467;28;20024;-43
2023/05/02 09:17:49;;;;;;;22.13;17.45;;;13.30;99.90;;;;;;5051864;28;20096;-43
2023/05/02 09:20:15;;;;;;;20.58;17.40;;;13.30;99.90;;;;;;5052430;28;20109;-43
2023/05/02 09:22:49;;;;;;;21.83;17.00;;;13.40;99.90;;;;;;5052502;28;20470;-43
2023/05/02 09:25:15;;;;;;;19.08;16.33;;;13.30;99.90;;;;;;5051092;28;20171;-40
2023/05/02 09:27:51;;;;;;;19.30;16.92;;;13.40;99.90;;;;;;5051839;28;20025;-43
2023/05/02 09:30:22;;;;;;;18.98;15.43;;;13.40;99.90;;;;;;5052204;28;20028;-43
2023/05/02 09:32:54;;;;;;;19.70;15.75;;;13.40;99.90;;;;;;5052138;28;20021;-43
2023/05/02 09:35:23;;;;;;;18.75;15.85;;;13.40;99.90;;;;;;5052439;28;20478;-43
2023/05/02 09:37:55;;;;;;;16.70;14.52;;;13.40;99.90;;;;;;5051592;28;20074;-43
2023/05/02 09:40:23;;;;;;;16.80;13.82;;;13.40;99.90;;;;;;5052214;28;20166;-43
2023/05/02 09:42:49;;;;;;;18.42;14.23;;;13.40;99.90;;;;;;5052338;28;20491;-43
2023/05/02 09:45:22;;;;;;;15.57;13.57;;;13.40;99.90;;;;;;5051855;28;20036;-40
2023/05/02 09:47:48;;;;;;;16.90;12.98;;;13.40;99.90;;;;;;5051207;28;20027;-40
2023/05/02 09:50:37;;;;;;;15.90;13.55;;;13.40;99.90;;;;;;5051967;28;20032;-39
2023/05/02 09:53:08;;;;;;;16.08;13.30;;;13.40;99.90;;;;;;5051898;28;20021;-40
2023/05/02 09:55:35;;;;;;;14.23;12.73;;;13.50;99.90;;;;;;5051748;28;20407;-42
2023/05/02 09:58:00;;;;;;;14.55;12.48;;;13.50;99.90;;;;;;5051070;28;20489;-40
2023/05/02 10:00:43;;;;;;;15.40;11.75;;;13.50;99.90;;;;;;5051622;28;20067;-44
2023/05/02 10:03:09;;;;;;;13.52;11.85;;;13.50;99.90;;;;;;5051506;28;20033;-40
2023/05/02 10:05:37;;;;;;;15.43;12.18;;;13.50;99.90;;;;;;5051501;28;20075;-38
2023/05/02 10:08:08;;;;;;;13.23;11.07;;;13.50;99.90;;;;;;5050928;28;20056;-40
2023/05/02 10:10:39;;;;;;;14.40;11.50;;;13.50;99.90;;;;;;5051441;28;20017;-38
2023/05/02 10:13:06;;;;;;;12.55;10.80;;;13.50;99.90;;;;;;5051466;28;20028;-43
2023/05/02 10:15:33;;;;;;;12.20;10.90;;;13.60;99.90;;;;;;5051424;28;20025;-43
2023/05/02 10:18:04;;;;;;;11.95;10.35;;;13.60;99.90;;;;;;5050623;28;20032;-44
2023/05/02 10:20:33;;;;;;;11.82;10.35;;;13.60;99.90;;;;;;5051405;28;20100;-44
2023/05/02 10:23:00;;;;;;;11.20;9.70;;;13.60;99.90;;;;;;5051106;28;20051;-41
2023/05/02 10:25:27;;;;;;;12.18;9.80;;;13.60;99.90;;;;;;5051217;28;20372;-44
2023/05/02 10:27:57;;;;;;;13.13;10.30;;;13.60;99.90;;;;;;5050648;28;20021;-43
2023/05/02 10:30:23;;;;;;;11.38;9.90;;;13.60;99.90;;;;;;5051366;28;20060;-42
2023/05/02 10:32:52;;;;;;;11.73;9.10;;;13.60;99.90;;;;;;5049846;28;20497;-44
2023/05/02 10:35:19;;;;;;;13.38;9.55;;;13.60;99.90;;;;;;5051438;28;20029;-42
2023/05/02 10:37:46;;;;;;;10.52;8.93;;;13.60;99.90;;;;;;5050494;28;20063;-44
2023/05/02 10:40:12;;;;;;;9.63;8.38;;;13.60;99.90;;;;;;5051044;28;20025;-43
2023/05/02 10:42:41;;;;;;;9.63;8.63;;;13.60;99.90;;;;;;5051136;28;20021;-43
2023/05/02 10:45:13;;;;;;;10.25;8.73;;;13.60;99.90;;;;;;5051033;28;20136;-43
2023/05/02 10:47:39;;;;;;;9.77;8.55;;;13.70;99.90;;;;;;5050517;28;20390;-43
2023/05/02 10:50:07;;;;;;;11.68;8.32;;;13.70;99.90;;;;;;5050778;28;20053;-43
2023/05/02 10:52:37;;;;;;;10.70;8.65;;;13.60;99.90;;;;;;5050904;28;20025;-43
2023/05/02 10:55:24;;;;;;;11.75;8.20;;;13.60;99.90;;;;;;5050815;28;20029;-43
2023/05/02 10:58:04;;;;;;;8.82;7.65;;;13.60;99.90;;;;;;5050301;28;20422;-43
2023/05/02 11:00:32;;;;;;;11.55;8.15;;;13.70;99.90;;;;;;5050692;28;20025;-43
2023/05/02 11:02:58;;;;;;;9.32;7.97;;;13.70;99.90;;;;;;5050740;28;20163;-43
2023/05/02 11:05:25;;;;;;;8.43;7.10;;;13.70;99.90;;;;;;5050810;28;20395;-43
2023/05/02 11:08:19;;;;;;;8.15;7.30;;;13.70;99.90;;;;;;5050108;28;20070;-43
2023/05/02 11:10:45;;;;;;;9.30;7.13;;;13.70;99.90;;;;;;5050458;28;20601;-43
2023/05/02 11:13:11;;;;;;;9.60;7.75;;;13.70;99.90;;;;;;5050557;28;20033;-43
2023/05/02 11:15:39;;;;;;;8.95;7.63;;;13.70;99.90;;;;;;5050577;28;20025;-43
2023/05/02 11:18:11;;;;;;;12.45;7.63;;;13.70;99.90;;;;;;5050423;28;20379;-43
2023/05/02 11:20:41;;;;;;;8.40;6.90;;;13.70;99.90;;;;;;5050862;28;20017;-43
2023/05/02 11:23:17;;;;;;;8.77;7.22;;;13.70;99.90;;;;;;5050618;28;20021;-43
2023/05/02 11:25:53;;;;;;;7.55;6.40;;;13.70;99.90;;;;;;5050361;28;20040;-43
2023/05/02 11:28:41;;;;;;;7.28;6.43;;;13.70;99.90;;;;;;5050283;28;20040;-42
2023/05/02 11:31:12;;;;;;;7.63;6.47;;;13.80;99.90;;;;;;5053752;28;20055;-41
2023/05/02 11:33:37;;;;;;;7.18;6.35;;;13.80;99.90;;;;;;5054825;28;20028;-43
2023/05/02 11:36:03;;;;;;;7.57;6.55;;;13.80;99.90;;;;;;5053863;28;20021;-43
2023/05/02 11:38:37;;;;;;;9.02;6.60;;;13.80;99.90;;;;;;5054292;28;20036;-43
2023/05/02 11:41:03;;;;;;;8.23;6.37;;;13.80;99.90;;;;;;5054529;28;20028;-43
2023/05/02 11:43:29;;;;;;;7.85;5.78;;;13.80;99.90;;;;;;5054466;28;20287;-37
2023/05/02 11:45:55;;;;;;;9.93;6.45;;;13.80;99.90;;;;;;5054414;28;20025;-39
2023/05/02 11:48:22;;;;;;;9.23;6.88;;;13.70;99.90;;;;;;5053851;28;20036;-39
2023/05/02 11:50:54;;;;;;;8.10;6.80;;;13.80;99.90;;;;;;5054112;28;20032;-41
2023/05/02 11:53:22;;;;;;;9.40;6.30;;;13.80;99.90;;;;;;5054065;28;20027;-43
2023/05/02 11:55:58;;;;;;;8.63;6.75;;;13.80;99.90;;;;;;5053943;28;20053;-44
2023/05/02 11:58:28;;;;;;;9.48;7.13;;;13.80;99.90;;;;;;5053962;28;20483;-43
2023/05/02 12:00:54;;;;;;;8.70;6.85;;;13.80;99.90;;;;;;5053954;28;20394;-43
2023/05/02 12:03:22;;;;;;;8.82;7.07;;;13.80;99.90;;;;;;5053738;28;20112;-43
2023/05/02 12:05:48;;;;;;;9.65;6.80;;;13.80;99.90;;;;;;5053585;28;20021;-42
2023/05/02 12:08:21;;;;;;;8.15;7.28;;;13.80;99.90;;;;;;5053756;28;20383;-43
2023/05/02 12:10:47;;;;;;;7.93;6.80;;;13.80;99.90;;;;;;5054094;28;20371;-43
2023/05/02 12:13:13;;;;;;;9.57;7.43;;;13.80;99.90;;;;;;5054070;28;20021;-43
2023/05/02 12:15:39;;;;;;;9.82;7.20;;;13.80;99.90;;;;;;5053862;28;20021;-43
2023/05/02 12:18:06;;;;;;;8.90;7.50;;;13.80;99.90;;;;;;5053217;28;20116;-43
2023/05/02 12:20:32;;;;;;;8.65;7.22;;;13.80;99.90;;;;;;5052168;28;20574;-43
2023/05/02 12:22:57;;;;;;;8.85;7.20;;;13.80;99.90;;;;;;5053530;28;20032;-42
2023/05/02 12:25:23;;;;;;;8.70;7.15;;;13.80;99.90;;;;;;5053368;28;20407;-43
2023/05/02 12:28:02;;;;;;;10.10;7.50;;;13.90;99.90;;;;;;5052668;28;20102;-43
2023/05/02 12:30:29;;;;;;;9.40;7.90;;;13.90;99.90;;;;;;5053303;28;20029;-43
2023/05/02 12:33:00;;;;;;;9.18;8.18;;;13.80;99.90;;;;;;5053435;28;20033;-43
2023/05/02 12:35:26;;;;;;;10.55;8.10;;;13.90;99.90;;;;;;5053245;28;20031;-42
2023/05/02 12:37:53;;;;;;;10.15;7.30;;;13.90;99.90;;;;;;5052644;28;20017;-43
2023/05/02 12:40:19;;;;;;;8.18;7.30;;;13.90;99.90;;;;;;5052956;28;20025;-44
2023/05/02 12:43:06;;;;;;;8.98;8.07;;;13.90;99.90;;;;;;5053117;28;20017;-43
2023/05/02 12:45:35;;;;;;;9.13;7.47;;;13.90;99.90;;;;;;5053124;28;20024;-43